Time;durP1;ratioP1;P1;durP2;ratioP2;P2;SDS_P1;SDS_P2;PMS_P1;PMS_P2;Temp;Humidity;BMP_temperature;BMP_pressure;BME280_temperature;BME280_humidity;BME280_pressure;Samples;Min_cycle;Max_cycle;Signal;HPM_P1;HPM_P2
2023/05/23 00:02:07;;;;;;;;;;;15.30;99.90;;;;;;5088261;28;20481;-77
2023/05/23 00:04:34;;;;;;;;;;;15.30;99.90;;;;;;5089444;28;19965;-76
2023/05/23 00:07:00;;;;;;;;;;;15.30;99.90;;;;;;5083690;28;19920;-76
2023/05/23 00:09:25;;;;;;;;;;;15.30;99.90;;;;;;5088607;28;19920;-77
2023/05/23 00:11:51;;;;;;;;;;;15.30;99.90;;;;;;5088172;28;19980;-76
2023/05/23 00:14:17;;;;;;;;;;;15.30;99.90;;;;;;5087776;28;20052;-76
2023/05/23 00:16:43;;;;;;;;;;;15.30;99.90;;;;;;5071490;28;19999;-76
2023/05/23 00:19:09;;;;;;;;;;;15.20;99.90;;;;;;5089420;28;19924;-76
2023/05/23 00:21:35;;;;;;;;;;;15.20;99.90;;;;;;5087857;28;19978;-76
2023/05/23 00:24:03;;;;;;;;;;;15.20;99.90;;;;;;5082533;28;19971;-76
2023/05/23 00:26:29;;;;;;;;;;;15.20;99.90;;;;;;5083684;28;19935;-76
2023/05/23 00:28:55;;;;;;;;;;;15.20;99.90;;;;;;5092610;28;19920;-77
2023/05/23 00:31:21;;;;;;;;;;;15.20;99.90;;;;;;5093182;28;19973;-76
2023/05/23 00:33:46;;;;;;;;;;;15.20;99.90;;;;;;5075033;28;20010;-76
2023/05/23 00:36:12;;;;;;;;;;;15.20;99.90;;;;;;5091686;28;19943;-76
2023/05/23 00:38:38;;;;;;;;;;;15.20;99.90;;;;;;5093014;28;20285;-76
2023/05/23 00:41:04;;;;;;;;;;;15.20;99.90;;;;;;5092194;28;19924;-76
2023/05/23 00:43:30;;;;;;;;;;;15.10;99.90;;;;;;5092156;28;19920;-76
2023/05/23 00:45:56;;;;;;;;;;;15.20;99.90;;;;;;5091509;28;20348;-76
2023/05/23 00:48:22;;;;;;;;;;;15.10;99.90;;;;;;5092762;28;19942;-76
2023/05/23 00:50:47;;;;;;;;;;;15.10;99.90;;;;;;5091034;28;19923;-76
2023/05/23 00:53:13;;;;;;;;;;;15.00;99.90;;;;;;5090912;28;19953;-76
2023/05/23 00:55:38;;;;;;;;;;;15.10;99.90;;;;;;5092950;28;19926;-76
2023/05/23 00:58:04;;;;;;;;;;;15.00;99.90;;;;;;5091513;28;19923;-76
2023/05/23 01:00:32;;;;;;;;;;;15.00;99.90;;;;;;5093028;28;20002;-76
2023/05/23 01:02:58;;;;;;;;;;;14.90;99.90;;;;;;5091018;28;20394;-76
2023/05/23 01:05:24;;;;;;;;;;;14.90;99.90;;;;;;5093118;28;20014;-76
2023/05/23 01:07:50;;;;;;;;;;;14.90;99.90;;;;;;5092227;28;20326;-76
2023/05/23 01:10:17;;;;;;;;;;;14.80;99.90;;;;;;5092917;28;19928;-76
2023/05/23 01:12:58;;;;;;;;;;;14.80;99.90;;;;;;5105523;28;19956;-76
2023/05/23 01:15:27;;;;;;;;;;;14.80;99.90;;;;;;5092978;28;20018;-76
2023/05/23 01:17:58;;;;;;;;;;;14.80;99.90;;;;;;5092404;28;19928;-76
2023/05/23 01:20:33;;;;;;;;;;;14.80;99.90;;;;;;5092507;28;21054;-76
2023/05/23 01:23:10;;;;;;;;;;;14.70;99.90;;;;;;5091896;28;19919;-76
2023/05/23 01:25:58;;;;;;;;;;;14.70;99.90;;;;;;5092144;28;19924;-76
2023/05/23 01:28:28;;;;;;;;;;;14.70;99.90;;;;;;5087691;28;19934;-76
2023/05/23 01:30:56;;;;;;;;;;;14.70;99.90;;;;;;5091459;28;19920;-76
2023/05/23 01:33:22;;;;;;;;;;;14.60;99.90;;;;;;5092564;28;19927;-76
2023/05/23 01:35:48;;;;;;;;;;;14.60;99.90;;;;;;5092109;28;20003;-76
2023/05/23 01:38:13;;;;;;;;;;;14.60;99.90;;;;;;5090356;28;20003;-76
2023/05/23 01:40:39;;;;;;;;;;;14.60;99.90;;;;;;5089005;28;19971;-76
2023/05/23 01:43:05;;;;;;;;;;;14.60;99.90;;;;;;5091680;28;19924;-76
2023/05/23 01:45:30;;;;;;;;;;;14.60;99.90;;;;;;5091906;28;19934;-76
2023/05/23 01:47:57;;;;;;;;;;;14.60;99.90;;;;;;5090016;28;19920;-76
2023/05/23 01:50:23;;;;;;;;;;;14.60;99.90;;;;;;5091523;28;20279;-76
2023/05/23 01:52:49;;;;;;;;;;;14.50;99.90;;;;;;5091358;28;19966;-76
2023/05/23 01:55:21;;;;;;;;;;;14.50;99.90;;;;;;5091597;28;20050;-76
2023/05/23 01:57:49;;;;;;;;;;;14.50;99.90;;;;;;5091555;28;19997;-76
2023/05/23 02:00:15;;;;;;;;;;;14.50;99.90;;;;;;5091401;28;20386;-76
2023/05/23 02:02:40;;;;;;;;;;;14.40;99.90;;;;;;5091350;28;19927;-76
2023/05/23 02:05:06;;;;;;;;;;;14.40;99.90;;;;;;5090045;28;19923;-76
2023/05/23 02:07:32;;;;;;;;;;;14.40;99.90;;;;;;5089788;28;19928;-76
2023/05/23 02:09:57;;;;;;;;;;;14.40;99.90;;;;;;5090766;28;19963;-76
2023/05/23 02:12:23;;;;;;;;;;;14.40;99.90;;;;;;5091341;28;19963;-76
2023/05/23 02:14:50;;;;;;;;;;;14.30;99.90;;;;;;5089265;28;19927;-76
2023/05/23 02:17:17;;;;;;;;;;;14.30;99.90;;;;;;5089680;28;20437;-76
2023/05/23 02:19:42;;;;;;;;;;;14.30;99.90;;;;;;5091272;28;19920;-76
2023/05/23 02:22:08;;;;;;;;;;;14.30;99.90;;;;;;5090901;28;19920;-76
2023/05/23 02:24:33;;;;;;;;;;;14.30;99.90;;;;;;5089412;28;19920;-76
2023/05/23 02:26:59;;;;;;;;;;;14.20;99.90;;;;;;5072656;28;19943;-76
2023/05/23 02:29:24;;;;;;;;;;;14.20;99.90;;;;;;5091090;28;20412;-76
2023/05/23 02:31:50;;;;;;;;;;;14.10;99.90;;;;;;5091001;28;20011;-76
2023/05/23 02:34:15;;;;;;;;;;;14.10;99.90;;;;;;5090557;28;19973;-76
2023/05/23 02:36:41;;;;;;;;;;;14.10;99.90;;;;;;5083712;28;19920;-76
2023/05/23 02:39:06;;;;;;;;;;;14.20;99.90;;;;;;5089488;28;19927;-76
2023/05/23 02:41:32;;;;;;;;;;;14.20;99.90;;;;;;5089470;28;19953;-76
2023/05/23 02:43:58;;;;;;;;;;;14.10;99.90;;;;;;5090821;28;19959;-76
2023/05/23 02:46:23;;;;;;;;;;;14.10;99.90;;;;;;5080537;28;19964;-76
2023/05/23 02:48:49;;;;;;;;;;;14.00;99.90;;;;;;5089128;28;19927;-76
2023/05/23 02:51:15;;;;;;;;;;;13.90;99.90;;;;;;5088540;28;19928;-76
2023/05/23 02:53:40;;;;;;;;;;;13.90;99.90;;;;;;5082857;28;19999;-76
2023/05/23 02:56:06;;;;;;;;;;;13.90;99.90;;;;;;5090253;28;19930;-76
2023/05/23 02:58:34;;;;;;;;;;;13.80;99.90;;;;;;5079453;28;19921;-76
2023/05/23 03:01:01;;;;;;;;;;;13.70;99.90;;;;;;5090458;28;19926;-76
2023/05/23 03:03:27;;;;;;;;;;;13.70;99.90;;;;;;5081557;28;19927;-75
2023/05/23 03:05:53;;;;;;;;;;;13.60;99.90;;;;;;5089010;28;20361;-76
2023/05/23 03:08:19;;;;;;;;;;;13.50;99.90;;;;;;5088815;28;19993;-76
2023/05/23 03:10:44;;;;;;;;;;;13.50;99.90;;;;;;5089932;28;19928;-76
2023/05/23 03:13:10;;;;;;;;;;;13.50;99.90;;;;;;5090453;28;19920;-76
2023/05/23 03:15:35;;;;;;;;;;;13.40;99.90;;;;;;5089200;28;20006;-76
2023/05/23 03:18:01;;;;;;;;;;;13.40;99.90;;;;;;5089880;28;20370;-76
2023/05/23 03:20:26;;;;;;;;;;;13.30;99.90;;;;;;5089851;28;19920;-76
2023/05/23 03:22:52;;;;;;;;;;;13.30;99.90;;;;;;5089890;28;19920;-76
2023/05/23 03:25:17;;;;;;;;;;;13.30;99.90;;;;;;5090111;28;20005;-76
2023/05/23 03:27:43;;;;;;;;;;;13.30;99.90;;;;;;5088543;28;20335;-76
2023/05/23 03:30:09;;;;;;;;;;;13.30;99.90;;;;;;5090072;28;19932;-76
2023/05/23 03:32:34;;;;;;;;;;;13.20;99.90;;;;;;5089462;28;19957;-76
2023/05/23 03:35:00;;;;;;;;;;;13.20;99.90;;;;;;5090162;28;19924;-76
2023/05/23 03:37:25;;;;;;;;;;;13.20;99.90;;;;;;5089993;28;19960;-76
2023/05/23 03:39:51;;;;;;;;;;;13.20;99.90;;;;;;5089586;28;20282;-76
2023/05/23 03:42:17;;;;;;;;;;;13.20;99.90;;;;;;5089363;28;20347;-76
2023/05/23 03:44:42;;;;;;;;;;;13.20;99.90;;;;;;5090096;28;19965;-76
2023/05/23 03:47:08;;;;;;;;;;;13.10;99.90;;;;;;5088577;28;20285;-76
2023/05/23 03:49:34;;;;;;;;;;;13.10;99.90;;;;;;5089516;28;20390;-76
2023/05/23 03:51:59;;;;;;;;;;;13.10;99.90;;;;;;5087927;28;20053;-76
2023/05/23 03:54:25;;;;;;;;;;;13.10;99.90;;;;;;5089841;28;19924;-76
2023/05/23 03:56:50;;;;;;;;;;;13.20;99.90;;;;;;5089002;28;19927;-76
2023/05/23 03:59:17;;;;;;;;;;;13.20;99.90;;;;;;5071426;28;19920;-76
2023/05/23 04:01:42;;;;;;;;;;;13.10;99.90;;;;;;5088879;28;19930;-75
2023/05/23 04:04:08;;;;;;;;;;;13.20;99.90;;;;;;5096173;28;20007;-76
2023/05/23 04:06:33;;;;;;;;;;;13.20;99.90;;;;;;5096065;28;20329;-76
2023/05/23 04:08:59;;;;;;;;;;;13.20;99.90;;;;;;5094380;28;19924;-76
2023/05/23 04:11:24;;;;;;;;;;;13.20;99.90;;;;;;5095761;28;19924;-76
2023/05/23 04:13:50;;;;;;;;;;;13.20;99.90;;;;;;5095908;28;19934;-76
2023/05/23 04:16:16;;;;;;;;;;;13.10;99.90;;;;;;5096197;28;19927;-76
2023/05/23 04:18:42;;;;;;;;;;;13.10;99.90;;;;;;5096288;28;20014;-76
2023/05/23 04:21:07;;;;;;;;;;;13.10;99.90;;;;;;5095262;28;19982;-76
2023/05/23 04:23:33;;;;;;;;;;;13.00;99.90;;;;;;5095877;28;19920;-76
2023/05/23 04:25:59;;;;;;;;;;;13.00;99.90;;;;;;5095813;28;19998;-76
2023/05/23 04:28:25;;;;;;;;;;;13.00;99.90;;;;;;5089632;28;19930;-76
2023/05/23 04:30:52;;;;;;;;;;;13.00;99.90;;;;;;5091404;28;19927;-76
2023/05/23 04:33:17;;;;;;;;;;;13.10;99.90;;;;;;5085580;28;19923;-76
2023/05/23 04:35:44;;;;;;;;;;;13.00;99.90;;;;;;5094522;28;19924;-76
2023/05/23 04:38:09;;;;;;;;;;;13.00;99.90;;;;;;5094947;28;20293;-76
2023/05/23 04:40:35;;;;;;;;;;;13.00;99.90;;;;;;5095424;28;19924;-76
2023/05/23 04:43:00;;;;;;;;;;;13.00;99.90;;;;;;5095723;28;20302;-76
2023/05/23 04:45:27;;;;;;;;;;;13.00;99.90;;;;;;5095211;28;20381;-76
2023/05/23 04:47:55;;;;;;;;;;;13.00;99.90;;;;;;5095526;28;19927;-76
2023/05/23 04:50:21;;;;;;;;;;;13.00;99.90;;;;;;5095222;28;19970;-76
2023/05/23 04:52:47;;;;;;;;;;;13.00;99.90;;;;;;5095526;28;19963;-76
2023/05/23 04:55:12;;;;;;;;;;;13.00;99.90;;;;;;5094875;28;19924;-76
2023/05/23 04:57:38;;;;;;;;;;;13.00;99.90;;;;;;5095790;28;19977;-76
2023/05/23 05:00:11;;;;;;;;;;;13.00;99.90;;;;;;5094012;28;19943;-76
2023/05/23 05:02:37;;;;;;;;;;;13.00;99.90;;;;;;5068331;28;19920;-76
2023/05/23 05:05:03;;;;;;;;;;;13.00;99.90;;;;;;5093849;28;19920;-76
2023/05/23 05:07:31;;;;;;;;;;;13.00;99.90;;;;;;5095693;28;19931;-76
2023/05/23 05:09:57;;;;;;;;;;;13.00;99.90;;;;;;5095326;28;20425;-76
2023/05/23 05:12:22;;;;;;;;;;;13.00;99.90;;;;;;5086634;28;19921;-76
2023/05/23 05:14:48;;;;;;;;;;;12.90;99.90;;;;;;5089889;28;19972;-75
2023/05/23 05:17:14;;;;;;;;;;;12.90;99.90;;;;;;5092433;28;20450;-73
2023/05/23 05:19:39;;;;;;;;;;;12.90;99.90;;;;;;5092053;28;19920;-72
2023/05/23 05:22:05;;;;;;;;;;;12.90;99.90;;;;;;5090242;28;19928;-74
2023/05/23 05:24:33;;;;;;;;;;;12.90;99.90;;;;;;5096474;28;19940;-75
2023/05/23 05:26:59;;;;;;;;;;;12.90;99.90;;;;;;5087866;28;20010;-75
2023/05/23 05:29:25;;;;;;;;;;;12.80;99.90;;;;;;5092247;28;19977;-76
2023/05/23 05:31:51;;;;;;;;;;;12.80;99.90;;;;;;5092053;28;19920;-75
2023/05/23 05:34:17;;;;;;;;;;;12.80;99.90;;;;;;5092168;28;19920;-76
2023/05/23 05:36:46;;;;;;;;;;;12.70;99.90;;;;;;5091623;28;19931;-76
2023/05/23 05:39:13;;;;;;;;;;;12.70;99.90;;;;;;5089864;28;19920;-76
2023/05/23 05:41:39;;;;;;;;;;;12.60;99.90;;;;;;5092174;28;19935;-76
2023/05/23 05:44:05;;;;;;;;;;;12.60;99.90;;;;;;5091991;28;19931;-76
2023/05/23 05:46:30;;;;;;;;;;;12.50;99.90;;;;;;5092152;28;19920;-76
2023/05/23 05:48:56;;;;;;;;;;;12.50;99.90;;;;;;5091048;28;19920;-76
2023/05/23 05:51:21;;;;;;;;;;;12.40;99.90;;;;;;5092339;28;20003;-76
2023/05/23 05:53:48;;;;;;;;;;;12.40;99.90;;;;;;5090911;28;20285;-76
2023/05/23 05:56:14;;;;;;;;;;;12.40;99.90;;;;;;5089142;28;19920;-76
2023/05/23 05:58:39;;;;;;;;;;;12.30;99.90;;;;;;5091646;28;20302;-76
2023/05/23 06:01:05;;;;;;;;;;;12.30;99.90;;;;;;5090339;28;19928;-76
2023/05/23 06:03:32;;;;;;;;;;;12.40;99.90;;;;;;5090047;28;19927;-76
2023/05/23 06:05:58;;;;;;;;;;;12.30;99.90;;;;;;5091796;28;19920;-76
2023/05/23 06:08:23;;;;;;;;;;;12.40;99.90;;;;;;5089624;28;19927;-76
2023/05/23 06:10:49;;;;;;;;;;;12.40;99.90;;;;;;5091570;28;20365;-76
2023/05/23 06:13:15;;;;;;;;;;;12.30;99.90;;;;;;5090611;28;20305;-76
2023/05/23 06:15:40;;;;;;;;;;;12.30;99.90;;;;;;5091404;28;19931;-76
2023/05/23 06:18:06;;;;;;;;;;;12.40;99.90;;;;;;5090261;28;20289;-76
2023/05/23 06:20:31;;;;;;;;;;;12.40;99.90;;;;;;5090953;28;19920;-77
2023/05/23 06:22:58;;;;;;;;;;;12.40;99.90;;;;;;5091176;28;19920;-76
2023/05/23 06:25:24;;;;;;;;;;;12.40;99.90;;;;;;5089702;28;20401;-76
2023/05/23 06:27:49;;;;;;;;;;;12.40;99.90;;;;;;5090642;28;19920;-76
2023/05/23 06:30:15;;;;;;;;;;;12.40;99.90;;;;;;5090899;28;19924;-77
2023/05/23 06:32:41;;;;;;;;;;;12.40;99.90;;;;;;5090357;28;19924;-76
2023/05/23 06:35:06;;;;;;;;;;;12.30;99.90;;;;;;5089833;28;19920;-76
2023/05/23 06:37:32;;;;;;;;;;;12.30;99.90;;;;;;5089623;28;19920;-76
2023/05/23 06:39:57;;;;;;;;;;;12.30;99.90;;;;;;5089537;28;19926;-77
2023/05/23 06:42:23;;;;;;;;;;;12.30;99.90;;;;;;5072104;28;20404;-76
2023/05/23 06:44:48;;;;;;;;;;;12.40;99.90;;;;;;5085558;28;19920;-76
2023/05/23 06:47:14;;;;;;;;;;;12.40;99.90;;;;;;5067828;28;19920;-76
2023/05/23 06:49:39;;;;;;;;;;;12.50;99.90;;;;;;5090450;28;19927;-76
2023/05/23 06:52:05;;;;;;;;;;;12.60;99.90;;;;;;5090762;28;19981;-76
2023/05/23 06:54:30;;;;;;;;;;;12.60;99.90;;;;;;5089349;28;20031;-77
2023/05/23 06:56:56;;;;;;;;;;;12.60;99.90;;;;;;5071945;28;19920;-76
2023/05/23 06:59:21;;;;;;;;;;;12.60;99.90;;;;;;5089367;28;20032;-76
2023/05/23 07:01:47;;;;;;;;;;;12.60;99.90;;;;;;5090276;28;19931;-76
2023/05/23 07:04:12;;;;;;;;;;;12.60;99.90;;;;;;5081329;28;19931;-77
2023/05/23 07:06:38;;;;;;;;;;;12.70;99.90;;;;;;5090705;28;19924;-76
2023/05/23 07:09:04;;;;;;;;;;;12.70;99.90;;;;;;5088570;28;19967;-76
2023/05/23 07:11:30;;;;;;;;;;;12.70;99.90;;;;;;5088943;28;19920;-76
2023/05/23 07:13:55;;;;;;;;;;;12.70;99.90;;;;;;5088726;28;19927;-76
2023/05/23 07:16:21;;;;;;;;;;;12.80;99.90;;;;;;5088613;28;19920;-76
2023/05/23 07:18:46;;;;;;;;;;;12.70;99.90;;;;;;5088238;28;19924;-76
2023/05/23 07:21:12;;;;;;;;;;;12.80;99.90;;;;;;5088605;28;20010;-76
2023/05/23 07:23:37;;;;;;;;;;;12.90;99.90;;;;;;5089156;28;20435;-76
2023/05/23 07:26:03;;;;;;;;;;;12.90;99.90;;;;;;5088694;28;19920;-76
2023/05/23 07:28:29;;;;;;;;;;;13.00;99.90;;;;;;5088877;28;20397;-76
2023/05/23 07:30:56;;;;;;;;;;;13.00;99.90;;;;;;5072091;28;19930;-76
2023/05/23 07:33:22;;;;;;;;;;;13.00;99.90;;;;;;5087679;28;20038;-76
2023/05/23 07:35:48;;;;;;;;;;;12.90;99.90;;;;;;5088487;28;20007;-76
2023/05/23 07:38:13;;;;;;;;;;;12.90;99.90;;;;;;5071241;28;19973;-76
2023/05/23 07:40:39;;;;;;;;;;;12.80;99.90;;;;;;5088278;28;19920;-76
2023/05/23 07:43:05;;;;;;;;;;;12.80;99.90;;;;;;5088117;28;19970;-76
2023/05/23 07:45:30;;;;;;;;;;;12.80;99.90;;;;;;5088352;28;20019;-76
2023/05/23 07:47:56;;;;;;;;;;;12.80;99.90;;;;;;5088055;28;19951;-76
2023/05/23 07:50:22;;;;;;;;;;;12.90;99.90;;;;;;5089701;28;19920;-76
2023/05/23 07:52:50;;;;;;;;;;;13.00;99.90;;;;;;5088272;28;19977;-76
2023/05/23 07:55:15;;;;;;;;;;;13.20;99.90;;;;;;5088827;28;19974;-76
2023/05/23 07:57:41;;;;;;;;;;;13.30;99.90;;;;;;5088637;28;19967;-76
2023/05/23 08:00:07;;;;;;;;;;;13.50;99.90;;;;;;5089467;28;20348;-76
2023/05/23 08:02:32;;;;;;;;;;;13.50;99.90;;;;;;5071607;28;19920;-77
2023/05/23 08:04:58;;;;;;;;;;;13.50;99.90;;;;;;5088117;28;19920;-76
2023/05/23 08:07:24;;;;;;;;;;;13.60;99.90;;;;;;5088383;28;20003;-76
2023/05/23 08:09:49;;;;;;;;;;;13.60;99.90;;;;;;5088402;28;19979;-76
2023/05/23 08:12:15;;;;;;;;;;;13.70;99.90;;;;;;5088093;28;20366;-76
2023/05/23 08:14:40;;;;;;;;;;;13.70;99.90;;;;;;5089328;28;20019;-76
2023/05/23 08:17:06;;;;;;;;;;;13.80;99.90;;;;;;5088104;28;19923;-76
2023/05/23 08:19:31;;;;;;;;;;;13.80;99.90;;;;;;5087576;28;19983;-76
2023/05/23 08:21:57;;;;;;;;;;;13.90;99.90;;;;;;5088234;28;20011;-76
2023/05/23 08:24:22;;;;;;;;;;;13.90;99.90;;;;;;5063042;28;19928;-76
2023/05/23 08:26:48;;;;;;;;;;;13.90;99.90;;;;;;5087530;28;19942;-77
2023/05/23 08:29:14;;;;;;;;;;;13.90;99.90;;;;;;5089632;28;19924;-77
2023/05/23 08:31:40;;;;;;;;;;;13.80;99.90;;;;;;5088348;28;20011;-76
2023/05/23 08:34:05;;;;;;;;;;;13.70;99.90;;;;;;5087723;28;19969;-76
2023/05/23 08:36:33;;;;;;;;;;;13.70;99.90;;;;;;5088481;28;19920;-76
2023/05/23 08:38:58;;;;;;;;;;;13.70;99.90;;;;;;5089070;28;19924;-77
2023/05/23 08:41:24;;;;;;;;;;;13.70;99.90;;;;;;5071285;28;20298;-77
2023/05/23 08:43:50;;;;;;;;;;;13.80;99.90;;;;;;5089240;28;21095;-76
2023/05/23 08:46:16;;;;;;;;;;;13.90;99.90;;;;;;5087836;28;19935;-76
2023/05/23 08:48:42;;;;;;;;;;;14.00;99.90;;;;;;5087637;28;19924;-76
2023/05/23 08:51:09;;;;;;;;;;;14.10;99.90;;;;;;5090996;28;19928;-76
2023/05/23 08:53:36;;;;;;;;;;;14.30;99.90;;;;;;5091170;28;19920;-76
2023/05/23 08:56:02;;;;;;;;;;;14.30;99.90;;;;;;5091903;28;19930;-76
2023/05/23 08:58:30;;;;;;;;;;;14.40;99.90;;;;;;5091244;28;20309;-76
2023/05/23 09:00:58;;;;;;;;;;;14.40;99.90;;;;;;5091674;28;20412;-76
2023/05/23 09:03:27;;;;;;;;;;;14.70;99.90;;;;;;5092028;28;20003;-76
2023/05/23 09:05:52;;;;;;;;;;;14.80;99.90;;;;;;5092383;28;19920;-77
2023/05/23 09:08:18;;;;;;;;;;;14.80;99.90;;;;;;5091234;28;20431;-76
2023/05/23 09:10:43;;;;;;;;;;;14.80;99.90;;;;;;5092972;28;19982;-76
2023/05/23 09:13:09;;;;;;;;;;;14.70;99.90;;;;;;5092402;28;19927;-77
2023/05/23 09:15:35;;;;;;;;;;;14.70;99.90;;;;;;5092214;28;19924;-77
2023/05/23 09:18:00;;;;;;;;;;;14.70;99.90;;;;;;5092393;28;20484;-76
2023/05/23 09:20:27;;;;;;;;;;;14.80;99.90;;;;;;5074434;28;19920;-77
2023/05/23 09:22:53;;;;;;;;;;;14.80;99.90;;;;;;5090926;28;19927;-76
2023/05/23 09:25:19;;;;;;;;;;;15.00;99.90;;;;;;5092178;28;20182;-77
2023/05/23 09:27:44;;;;;;;;;;;15.00;99.90;;;;;;5090629;28;20386;-76
2023/05/23 09:30:10;;;;;;;;;;;14.90;99.90;;;;;;5091527;28;19966;-77
2023/05/23 09:32:36;;;;;;;;;;;14.90;99.90;;;;;;5090725;28;19920;-77
2023/05/23 09:35:05;;;;;;;;;;;15.10;99.90;;;;;;5090822;28;19923;-77
2023/05/23 09:37:32;;;;;;;;;;;15.10;99.90;;;;;;5091209;28;19927;-77
2023/05/23 09:39:59;;;;;;;;;;;15.20;99.90;;;;;;5090582;28;19995;-77
2023/05/23 09:42:30;;;;;;;;;;;15.20;99.90;;;;;;5090703;28;20126;-77
2023/05/23 09:44:55;;;;;;;;;;;15.30;99.90;;;;;;5092534;28;19924;-76
2023/05/23 09:47:21;;;;;;;;;;;15.40;99.90;;;;;;5080623;28;19980;-76
2023/05/23 09:49:47;;;;;;;;;;;15.60;99.90;;;;;;5091830;28;19929;-77
2023/05/23 09:52:14;;;;;;;;;;;15.80;99.90;;;;;;5090755;28;20146;-77
2023/05/23 09:54:39;;;;;;;;;;;15.80;99.90;;;;;;5090797;28;20755;-77
2023/05/23 09:57:08;;;;;;;;;;;15.90;99.90;;;;;;5091538;28;19932;-77
2023/05/23 09:59:34;;;;;;;;;;;15.90;99.90;;;;;;5092090;28;19985;-77
2023/05/23 10:02:02;;;;;;;;;;;15.90;99.90;;;;;;5090769;28;19932;-77
2023/05/23 10:04:30;;;;;;;;;;;16.00;99.90;;;;;;5092171;28;19924;-77
2023/05/23 10:06:58;;;;;;;;;;;16.20;99.90;;;;;;5091363;28;19932;-77
2023/05/23 10:09:25;;;;;;;;;;;16.30;99.90;;;;;;5081839;28;19925;-77
2023/05/23 10:12:10;;;;;;;;;;;16.10;99.90;;;;;;5091344;28;19936;-77
2023/05/23 10:14:39;;;;;;;;;;;16.00;99.90;;;;;;5072926;28;19928;-77
2023/05/23 10:17:12;;;;;;;;;;;16.20;99.90;;;;;;5091844;28;20015;-77
2023/05/23 10:19:43;;;;;;;;;;;16.40;99.90;;;;;;5091149;28;19924;-77
2023/05/23 10:22:09;;;;;;;;;;;16.60;99.90;;;;;;5083407;28;19924;-77
2023/05/23 10:24:35;;;;;;;;;;;16.80;99.90;;;;;;5089415;28;20409;-77
2023/05/23 10:27:01;;;;;;;;;;;16.70;99.90;;;;;;5089274;28;19935;-77
2023/05/23 10:29:28;;;;;;;;;;;16.50;99.90;;;;;;5079306;28;19928;-77
2023/05/23 10:31:54;;;;;;;;;;;16.50;99.90;;;;;;5064571;28;19925;-77
2023/05/23 10:34:24;;;;;;;;;;;16.40;99.90;;;;;;5090258;28;20315;-77
2023/05/23 10:36:49;;;;;;;;;;;16.30;99.90;;;;;;5088945;28;19924;-77
2023/05/23 10:39:18;;;;;;;;;;;16.40;99.90;;;;;;5089680;28;20412;-77
2023/05/23 10:41:47;;;;;;;;;;;16.40;99.90;;;;;;5088667;28;20043;-77
2023/05/23 10:44:19;;;;;;;;;;;16.40;99.90;;;;;;5087973;28;19924;-77
2023/05/23 10:46:49;;;;;;;;;;;16.50;99.90;;;;;;5088678;28;19981;-76
2023/05/23 10:49:16;;;;;;;;;;;16.40;99.90;;;;;;5089898;28;20340;-76
2023/05/23 10:51:41;;;;;;;;;;;16.20;99.90;;;;;;5090140;28;19924;-76
2023/05/23 10:54:10;;;;;;;;;;;16.20;99.90;;;;;;5071217;28;19924;-77
2023/05/23 10:56:36;;;;;;;;;;;16.50;99.90;;;;;;5088178;28;20714;-77
2023/05/23 10:59:04;;;;;;;;;;;16.70;99.90;;;;;;5071415;28;19934;-77
2023/05/23 11:01:29;;;;;;;;;;;16.70;99.90;;;;;;5088528;28;19928;-77
2023/05/23 11:03:55;;;;;;;;;;;16.60;99.90;;;;;;5077492;28;19928;-77
2023/05/23 11:06:31;;;;;;;;;;;16.40;99.90;;;;;;5089605;28;19967;-77
2023/05/23 11:09:12;;;;;;;;;;;16.50;99.90;;;;;;5087979;28;19947;-77
2023/05/23 11:11:50;;;;;;;;;;;16.50;99.90;;;;;;5088930;28;20344;-77
2023/05/23 11:14:15;;;;;;;;;;;16.40;99.90;;;;;;5088190;28;19932;-76
2023/05/23 11:16:41;;;;;;;;;;;16.30;99.90;;;;;;5089158;28;20313;-77
2023/05/23 11:19:19;;;;;;;;;;;16.20;99.90;;;;;;5087999;28;19928;-77
2023/05/23 11:21:45;;;;;;;;;;;16.00;99.90;;;;;;5089165;28;19928;-77
2023/05/23 11:24:11;;;;;;;;;;;16.00;99.90;;;;;;5088342;28;20744;-76
2023/05/23 11:26:37;;;;;;;;;;;16.10;99.90;;;;;;5070975;28;20011;-77
2023/05/23 11:29:07;;;;;;;;;;;16.30;99.90;;;;;;5071046;28;19924;-77
2023/05/23 11:31:36;;;;;;;;;;;16.70;99.90;;;;;;5087705;28;19924;-77
2023/05/23 11:34:01;;;;;;;;;;;17.10;99.90;;;;;;5087356;28;19989;-77
2023/05/23 11:36:28;;;;;;;;;;;17.40;99.90;;;;;;5087575;28;19924;-77
2023/05/23 11:38:54;;;;;;;;;;;17.60;99.90;;;;;;5087824;28;19932;-77
2023/05/23 11:41:20;;;;;;;;;;;17.70;99.90;;;;;;5087325;28;19932;-77
2023/05/23 11:43:52;;;;;;;;;;;17.90;99.90;;;;;;5070695;28;19924;-77
2023/05/23 11:46:18;;;;;;;;;;;18.00;99.90;;;;;;5086932;28;19927;-77
2023/05/23 11:48:44;;;;;;;;;;;17.90;99.90;;;;;;5087573;28;20003;-77
2023/05/23 11:51:09;;;;;;;;;;;17.60;99.60;;;;;;5087563;28;19947;-77
2023/05/23 11:53:35;;;;;;;;;;;17.30;99.90;;;;;;5071853;28;19928;-77
2023/05/23 11:56:01;;;;;;;;;;;17.00;99.90;;;;;;5089583;28;20396;-77
2023/05/23 11:58:32;;;;;;;;;;;16.90;99.90;;;;;;5087917;28;20321;-77
2023/05/23 12:00:59;;;;;;;;;;;16.80;99.90;;;;;;5089893;28;19932;-77
2023/05/23 12:03:25;;;;;;;;;;;16.70;99.90;;;;;;5078954;28;19924;-77
2023/05/23 12:05:50;;;;;;;;;;;17.00;99.90;;;;;;5071641;28;19989;-77
2023/05/23 12:08:16;;;;;;;;;;;17.50;99.90;;;;;;5087663;28;19931;-77
2023/05/23 12:10:48;;;;;;;;;;;17.80;99.90;;;;;;5079847;28;19924;-77
2023/05/23 12:13:14;;;;;;;;;;;17.80;99.90;;;;;;5089269;28;19924;-77
2023/05/23 12:15:39;;;;;;;;;;;17.90;99.90;;;;;;5088598;28;19924;-76
2023/05/23 12:18:06;;;;;;;;;;;18.20;98.20;;;;;;5087866;28;19932;-76
2023/05/23 12:20:34;;;;;;;;;;;18.40;99.20;;;;;;5080652;28;19982;-76
2023/05/23 12:23:03;;;;;;;;;;;18.40;97.10;;;;;;5088051;28;19946;-76
2023/05/23 12:25:29;;;;;;;;;;;18.10;95.90;;;;;;5092191;28;19924;-76
2023/05/23 12:27:55;;;;;;;;;;;17.80;97.70;;;;;;5093226;28;19931;-75
2023/05/23 12:30:21;;;;;;;;;;;17.60;98.90;;;;;;5093631;28;19979;-76
2023/05/23 12:32:46;;;;;;;;;;;17.50;99.90;;;;;;5091848;28;19932;-76
2023/05/23 12:35:15;;;;;;;;;;;17.70;99.90;;;;;;5092374;28;19992;-76
2023/05/23 12:37:42;;;;;;;;;;;17.60;99.30;;;;;;5082904;28;19931;-76
2023/05/23 12:40:09;;;;;;;;;;;17.70;99.90;;;;;;5093301;28;19967;-77
2023/05/23 12:42:51;;;;;;;;;;;18.10;99.90;;;;;;5091390;28;19931;-76
2023/05/23 12:45:17;;;;;;;;;;;18.30;99.70;;;;;;5091739;28;19981;-76
2023/05/23 12:47:43;;;;;;;;;;;18.40;99.90;;;;;;5075240;28;20480;-76
2023/05/23 12:50:10;;;;;;;;;;;18.30;97.40;;;;;;5090595;28;19924;-76
2023/05/23 12:52:36;;;;;;;;;;;18.20;98.10;;;;;;5087845;28;19928;-76
2023/05/23 12:55:01;;;;;;;;;;;18.10;98.60;;;;;;5091405;28;19935;-76
2023/05/23 12:57:27;;;;;;;;;;;18.10;98.30;;;;;;5091471;28;19947;-76
2023/05/23 12:59:52;;;;;;;;;;;18.10;97.50;;;;;;5091294;28;19924;-76
2023/05/23 13:02:18;;;;;;;;;;;18.10;97.30;;;;;;5092629;28;20625;-76
2023/05/23 13:04:44;;;;;;;;;;;18.20;99.00;;;;;;5090538;28;19935;-76
2023/05/23 13:07:09;;;;;;;;;;;18.50;97.00;;;;;;5090858;28;19936;-76
2023/05/23 13:09:35;;;;;;;;;;;18.80;95.40;;;;;;5091200;28;19931;-76
2023/05/23 13:12:00;;;;;;;;;;;19.10;95.30;;;;;;5091680;28;19930;-76
2023/05/23 13:14:26;;;;;;;;;;;19.20;95.00;;;;;;5090663;28;20014;-76
2023/05/23 13:16:51;;;;;;;;;;;18.90;94.10;;;;;;5092153;28;19924;-76
2023/05/23 13:19:17;;;;;;;;;;;18.80;95.20;;;;;;5090830;28;20011;-76
2023/05/23 13:21:42;;;;;;;;;;;18.90;94.30;;;;;;5092457;28;20299;-76
2023/05/23 13:24:08;;;;;;;;;;;18.70;94.20;;;;;;5090753;28;19938;-76
2023/05/23 13:26:33;;;;;;;;;;;18.90;93.60;;;;;;5090752;28;20022;-76
2023/05/23 13:28:59;;;;;;;;;;;19.00;92.90;;;;;;5074004;28;20015;-76
2023/05/23 13:31:26;;;;;;;;;;;18.70;93.00;;;;;;5090719;28;19924;-76
2023/05/23 13:33:51;;;;;;;;;;;18.40;93.80;;;;;;5090821;28;19950;-76
2023/05/23 13:36:17;;;;;;;;;;;18.60;94.50;;;;;;5090262;28;20429;-76
2023/05/23 13:38:42;;;;;;;;;;;18.80;93.20;;;;;;5091969;28;20386;-76
2023/05/23 13:41:08;;;;;;;;;;;19.00;92.40;;;;;;5090631;28;20349;-76
2023/05/23 13:43:33;;;;;;;;;;;19.10;91.80;;;;;;5090745;28;20018;-76
2023/05/23 13:46:00;;;;;;;;;;;19.20;92.80;;;;;;5090975;28;19971;-76
2023/05/23 13:48:26;;;;;;;;;;;19.30;90.60;;;;;;5090232;28;19924;-78
2023/05/23 13:50:51;;;;;;;;;;;19.60;90.40;;;;;;5091129;28;21100;-76
2023/05/23 13:53:17;;;;;;;;;;;19.90;91.80;;;;;;5090233;28;19924;-76
2023/05/23 13:55:43;;;;;;;;;;;20.00;90.70;;;;;;5071542;28;20378;-76
2023/05/23 13:58:10;;;;;;;;;;;20.30;90.70;;;;;;5090478;28;19924;-76
2023/05/23 14:00:35;;;;;;;;;;;20.40;87.80;;;;;;5090560;28;19928;-76
2023/05/23 14:03:01;;;;;;;;;;;20.20;84.10;;;;;;5089968;28;20321;-77
2023/05/23 14:05:27;;;;;;;;;;;20.30;85.60;;;;;;5090841;28;20420;-77
2023/05/23 14:07:52;;;;;;;;;;;20.60;85.40;;;;;;5091417;28;19924;-76
2023/05/23 14:10:18;;;;;;;;;;;20.70;84.90;;;;;;5086118;28;19924;-76
2023/05/23 14:12:43;;;;;;;;;;;20.70;82.00;;;;;;5084526;28;19976;-76